Time;durP1;ratioP1;P1;durP2;ratioP2;P2;SDS_P1;SDS_P2;PMS_P1;PMS_P2;Temp;Humidity;BMP_temperature;BMP_pressure;BME280_temperature;BME280_humidity;BME280_pressure;Samples;Min_cycle;Max_cycle;Signal;HPM_P1;HPM_P2
2023/10/22 00:00:14;;;;;;;5.28;1.85;;;;;;;8.90;78.70;98244.88;4978429;28;20562;-51
2023/10/22 00:02:41;;;;;;;4.65;1.40;;;;;;;8.91;78.76;98243.97;4983694;28;20042;-48
2023/10/22 00:05:08;;;;;;;3.63;1.38;;;;;;;8.92;78.94;98243.06;4977522;28;20057;-50
2023/10/22 00:07:36;;;;;;;2.95;1.55;;;;;;;8.93;78.71;98249.97;4979294;28;20050;-53
2023/10/22 00:10:03;;;;;;;2.15;1.17;;;;;;;8.93;78.67;98254.25;4983933;28;20073;-50
2023/10/22 00:12:30;;;;;;;2.42;1.63;;;;;;;8.93;78.83;98262.88;4984901;28;20401;-50
2023/10/22 00:14:56;;;;;;;5.25;1.55;;;;;;;8.93;78.75;98262.88;4981868;28;20054;-51
2023/10/22 00:17:23;;;;;;;3.58;2.17;;;;;;;8.94;78.77;98261.97;4983442;28;20108;-48
2023/10/22 00:19:50;;;;;;;1.70;1.35;;;;;;;8.92;78.68;98261.16;4982448;28;20054;-50
2023/10/22 00:22:17;;;;;;;3.03;1.63;;;;;;;8.90;78.71;98267.25;4984817;28;20388;-51
2023/10/22 00:24:44;;;;;;;2.60;1.23;;;;;;;8.86;78.38;98266.47;4981650;28;20516;-50
2023/10/22 00:27:11;;;;;;;2.70;1.05;;;;;;;8.81;78.52;98265.75;4985806;28;20093;-52
2023/10/22 00:29:38;;;;;;;2.55;1.70;;;;;;;8.76;78.71;98272.75;4980401;28;20116;-49
2023/10/22 00:32:06;;;;;;;4.53;1.63;;;;;;;8.70;78.75;98279.75;4986612;28;20514;-47
2023/10/22 00:34:33;;;;;;;2.45;1.65;;;;;;;8.65;78.65;98284.16;4986680;28;20389;-48
2023/10/22 00:37:00;;;;;;;3.40;1.38;;;;;;;8.59;78.38;98292.06;4983975;28;20046;-50
2023/10/22 00:39:26;;;;;;;2.60;1.42;;;;;;;8.54;78.29;98289.59;4985703;28;20058;-49
2023/10/22 00:41:53;;;;;;;3.22;1.85;;;;;;;8.49;78.24;98292.22;4984286;28;20651;-50
2023/10/22 00:44:20;;;;;;;3.65;1.35;;;;;;;8.44;78.84;98288.91;4987116;28;20050;-48
2023/10/22 00:46:47;;;;;;;4.72;1.38;;;;;;;8.42;79.00;98301.00;4985285;28;20462;-49
2023/10/22 00:49:15;;;;;;;6.28;1.52;;;;;;;8.36;78.82;98293.41;4982689;28;20113;-51
2023/10/22 00:51:43;;;;;;;5.13;1.40;;;;;;;8.33;78.13;98296.03;4985521;28;20038;-49
2023/10/22 00:54:12;;;;;;;6.05;1.73;;;;;;;8.30;79.08;98307.28;4976306;28;20137;-47
2023/10/22 00:56:40;;;;;;;3.33;1.58;;;;;;;8.27;79.03;98306.50;4982934;28;20057;-48
2023/10/22 00:59:07;;;;;;;4.13;1.50;;;;;;;8.22;78.89;98312.63;4982168;28;20452;-48
2023/10/22 01:01:35;;;;;;;2.85;1.80;;;;;;;8.19;78.51;98315.25;4983682;28;20467;-51
2023/10/22 01:04:02;;;;;;;2.78;1.48;;;;;;;8.16;78.26;98323.03;4984753;28;20068;-49
2023/10/22 01:06:30;;;;;;;4.00;1.83;;;;;;;8.12;79.04;98324.00;4983557;28;20082;-52
2023/10/22 01:08:58;;;;;;;5.32;1.60;;;;;;;8.12;78.82;98317.97;4972251;28;20073;-52
2023/10/22 01:11:25;;;;;;;5.22;1.70;;;;;;;8.09;79.39;98329.19;4981567;28;20055;-50
2023/10/22 01:13:51;;;;;;;8.48;1.73;;;;;;;8.05;79.21;98325.84;4982341;28;20053;-51
2023/10/22 01:16:18;;;;;;;2.25;1.17;;;;;;;8.04;79.02;98333.63;4982716;28;20049;-49
2023/10/22 01:18:45;;;;;;;2.80;1.20;;;;;;;8.03;79.02;98342.22;4979239;28;20054;-50
2023/10/22 01:21:12;;;;;;;1.98;1.10;;;;;;;8.02;79.10;98340.50;4977393;28;20046;-50
2023/10/22 01:23:39;;;;;;;5.60;1.33;;;;;;;8.00;79.42;98355.19;4979751;28;20078;-48
2023/10/22 01:26:07;;;;;;;1.88;0.73;;;;;;;7.98;78.43;98353.47;4974205;28;20058;-51
2023/10/22 01:28:35;;;;;;;2.53;1.48;;;;;;;7.97;79.14;98351.78;4967518;28;20050;-52
2023/10/22 01:31:04;;;;;;;3.00;1.40;;;;;;;7.95;78.64;98353.53;4959141;28;20420;-50
2023/10/22 01:33:32;;;;;;;2.95;1.00;;;;;;;7.94;79.05;98359.56;4966048;28;20042;-51
2023/10/22 01:35:59;;;;;;;1.90;1.05;;;;;;;7.93;79.53;98359.59;4959048;28;20496;-51
2023/10/22 01:38:26;;;;;;;2.55;1.20;;;;;;;7.92;78.97;98374.22;4964964;28;20057;-49
2023/10/22 01:40:52;;;;;;;2.00;1.02;;;;;;;7.88;79.88;98366.56;4963049;28;20050;-50
2023/10/22 01:43:19;;;;;;;1.65;1.02;;;;;;;7.86;79.36;98371.75;4963210;28;20047;-47
2023/10/22 01:45:45;;;;;;;2.50;1.05;;;;;;;7.85;78.98;98375.22;4964994;28;20126;-50
2023/10/22 01:48:12;;;;;;;2.00;0.88;;;;;;;7.81;79.76;98384.72;4966929;28;20047;-50
2023/10/22 01:50:39;;;;;;;1.70;0.85;;;;;;;7.79;79.39;98377.88;4966892;28;20142;-47
2023/10/22 01:53:06;;;;;;;3.05;1.30;;;;;;;7.78;78.31;98389.94;4972395;28;20081;-48
2023/10/22 01:55:32;;;;;;;2.17;1.40;;;;;;;7.76;79.86;98393.41;4981984;28;20436;-47
2023/10/22 01:57:59;;;;;;;3.60;1.10;;;;;;;7.74;79.07;98390.03;4969289;28;20109;-48
2023/10/22 02:00:25;;;;;;;2.58;1.05;;;;;;;7.72;78.97;98401.22;4968959;28;20059;-50
2023/10/22 02:02:52;;;;;;;2.47;0.90;;;;;;;7.71;79.78;98406.41;4966675;28;20497;-49
2023/10/22 02:05:19;;;;;;;2.90;1.00;;;;;;;7.68;78.78;98407.31;4973883;28;20038;-49
2023/10/22 02:07:46;;;;;;;4.38;0.82;;;;;;;7.67;79.83;98413.31;4974965;28;20046;-50
2023/10/22 02:10:13;;;;;;;3.05;1.25;;;;;;;7.66;78.94;98414.19;4981302;28;20042;-48
2023/10/22 02:12:40;;;;;;;1.80;0.80;;;;;;;7.66;79.66;98413.34;4974633;28;20093;-52
2023/10/22 02:15:07;;;;;;;1.73;0.80;;;;;;;7.67;78.79;98420.22;4978584;28;20069;-49
2023/10/22 02:17:34;;;;;;;1.58;1.15;;;;;;;7.67;79.37;98420.22;4985475;28;20134;-50
2023/10/22 02:20:01;;;;;;;1.98;1.27;;;;;;;7.67;79.84;98421.03;4985985;28;20051;-48
2023/10/22 02:22:28;;;;;;;2.58;1.08;;;;;;;7.66;79.47;98429.66;4985554;28;20053;-56
2023/10/22 02:24:54;;;;;;;2.25;1.00;;;;;;;7.65;79.23;98434.84;4986903;28;20105;-50
2023/10/22 02:27:21;;;;;;;4.10;1.27;;;;;;;7.63;79.56;98434.84;4990417;28;20049;-49
2023/10/22 02:29:48;;;;;;;1.88;0.98;;;;;;;7.62;79.54;98443.47;4989857;28;20079;-47
2023/10/22 02:32:15;;;;;;;1.63;0.65;;;;;;;7.59;79.40;98444.38;4990419;28;20056;-48
2023/10/22 02:34:42;;;;;;;1.88;0.90;;;;;;;7.59;79.46;98448.66;4984550;28;20055;-51
2023/10/22 02:37:08;;;;;;;3.75;1.10;;;;;;;7.57;79.89;98447.88;4980758;28;20046;-51
2023/10/22 02:39:35;;;;;;;4.55;2.38;;;;;;;7.54;78.88;98445.31;4983125;28;20051;-50
2023/10/22 02:42:02;;;;;;;2.40;1.23;;;;;;;7.55;78.59;98462.47;4977510;28;20044;-49
2023/10/22 02:44:29;;;;;;;2.25;1.48;;;;;;;7.52;78.85;98463.38;4979055;28;20599;-49
2023/10/22 02:46:56;;;;;;;1.42;0.80;;;;;;;7.51;79.60;98468.56;4980194;28;20328;-47
2023/10/22 02:49:23;;;;;;;4.00;0.73;;;;;;;7.49;79.13;98463.44;4985299;28;20045;-50
2023/10/22 02:51:50;;;;;;;2.25;1.00;;;;;;;7.49;79.27;98465.16;4981439;28;20054;-52
2023/10/22 02:54:17;;;;;;;1.63;1.05;;;;;;;7.46;79.97;98469.47;4985468;28;20050;-48
2023/10/22 02:56:43;;;;;;;6.00;1.02;;;;;;;7.44;79.90;98468.63;4980087;28;20046;-49
2023/10/22 02:59:10;;;;;;;2.63;1.00;;;;;;;7.44;78.63;98475.53;4985501;28;20064;-50
2023/10/22 03:01:36;;;;;;;2.90;0.75;;;;;;;7.42;79.69;98483.28;4983232;28;20109;-51
2023/10/22 03:04:04;;;;;;;2.50;1.00;;;;;;;7.41;80.38;98489.31;4986220;28;20046;-48
2023/10/22 03:06:31;;;;;;;1.98;0.73;;;;;;;7.40;78.68;98492.75;4980627;28;20059;-53
2023/10/22 03:08:58;;;;;;;1.42;0.95;;;;;;;7.38;79.26;98491.06;4984211;28;20057;-50
2023/10/22 03:11:24;;;;;;;2.05;1.30;;;;;;;7.37;78.68;98495.41;4981381;28;20048;-48
2023/10/22 03:13:51;;;;;;;1.23;0.52;;;;;;;7.33;79.91;98499.72;4981986;28;20050;-49
2023/10/22 03:16:18;;;;;;;2.85;0.98;;;;;;;7.32;79.78;98500.59;4989637;28;20077;-47
2023/10/22 03:18:46;;;;;;;1.52;0.70;;;;;;;7.32;79.40;98512.63;4987139;28;20125;-52
2023/10/22 03:21:17;;;;;;;2.63;0.80;;;;;;;7.30;79.09;98515.22;4982581;28;20133;-50
2023/10/22 03:23:43;;;;;;;;;;;;;;;7.19;79.14;98512.78;4990544;28;20108;-51
2023/10/22 03:26:14;;;;;;;3.15;0.95;;;;;;;7.25;79.57;98511.00;4989383;28;20290;-50
2023/10/22 03:28:41;;;;;;;1.45;0.77;;;;;;;7.25;80.07;98518.72;4982252;28;20057;-51
2023/10/22 03:31:08;;;;;;;2.13;1.00;;;;;;;7.24;79.47;98514.47;4988308;28;20054;-48
2023/10/22 03:33:35;;;;;;;0.93;0.57;;;;;;;7.25;78.83;98516.16;4990344;28;20121;-49
2023/10/22 03:36:04;;;;;;;3.50;0.63;;;;;;;7.23;79.77;98516.16;4980524;28;20050;-48
2023/10/22 03:38:31;;;;;;;2.33;0.88;;;;;;;7.22;80.30;98524.78;4971575;28;20460;-47
2023/10/22 03:41:00;;;;;;;2.85;1.25;;;;;;;7.23;79.16;98528.22;4987391;28;20046;-52
2023/10/22 03:43:28;;;;;;;2.20;0.85;;;;;;;7.23;80.36;98538.50;4986913;28;20050;-46
2023/10/22 03:45:55;;;;;;;2.30;0.90;;;;;;;7.24;79.80;98541.06;4984676;28;20050;-50
2023/10/22 03:48:22;;;;;;;1.33;0.70;;;;;;;7.24;79.62;98546.22;4981191;28;20049;-50
2023/10/22 03:50:50;;;;;;;2.20;0.90;;;;;;;7.25;78.99;98554.78;4966565;28;20046;-48
2023/10/22 03:53:16;;;;;;;1.30;0.95;;;;;;;7.25;79.27;98558.22;4960717;28;20047;-48
2023/10/22 03:55:43;;;;;;;2.88;1.00;;;;;;;7.25;79.71;98552.19;4961307;28;20054;-48
2023/10/22 03:58:10;;;;;;;2.45;1.00;;;;;;;7.25;79.73;98562.50;4968403;28;20104;-50
2023/10/22 04:00:38;;;;;;;1.63;0.93;;;;;;;7.26;80.19;98559.09;4984902;28;20056;-47
2023/10/22 04:03:05;;;;;;;2.65;1.13;;;;;;;7.29;78.98;98571.88;4985124;28;20050;-48
2023/10/22 04:05:32;;;;;;;1.20;0.77;;;;;;;7.28;78.90;98565.03;4983662;28;20125;-50
2023/10/22 04:07:59;;;;;;;5.93;1.30;;;;;;;7.29;79.16;98569.31;4985429;28;20058;-50
2023/10/22 04:10:26;;;;;;;2.78;1.10;;;;;;;7.29;79.79;98574.47;4984536;28;20050;-48
2023/10/22 04:12:53;;;;;;;6.25;0.82;;;;;;;7.27;80.39;98578.81;4983033;28;20472;-49
2023/10/22 04:15:20;;;;;;;4.20;1.20;;;;;;;7.25;79.19;98578.81;4980948;28;20699;-47
2023/10/22 04:17:47;;;;;;;1.90;1.15;;;;;;;7.24;80.34;98581.41;4982105;28;20053;-49
2023/10/22 04:20:14;;;;;;;2.38;1.05;;;;;;;7.19;79.26;98584.91;4982574;28;20066;-48
2023/10/22 04:22:42;;;;;;;3.50;1.13;;;;;;;7.17;79.43;98586.63;4987954;28;20567;-49
2023/10/22 04:25:11;;;;;;;3.13;0.80;;;;;;;7.14;79.44;98586.69;4987498;28;20046;-48
2023/10/22 04:27:38;;;;;;;2.55;1.00;;;;;;;7.12;79.54;98591.00;4984449;28;20056;-50
2023/10/22 04:30:05;;;;;;;4.70;1.13;;;;;;;7.10;79.55;98595.31;4987586;28;20046;-48
2023/10/22 04:32:33;;;;;;;4.70;0.90;;;;;;;7.10;79.33;98599.63;4984448;28;20047;-51
2023/10/22 04:35:00;;;;;;;1.65;1.20;;;;;;;7.08;79.58;98602.19;4977988;28;20062;-53
2023/10/22 04:37:27;;;;;;;1.50;0.88;;;;;;;7.06;79.38;98598.81;4984608;28;20049;-50
2023/10/22 04:39:58;;;;;;;2.53;0.93;;;;;;;7.05;79.85;98609.94;4984720;28;20050;-51
2023/10/22 04:42:27;;;;;;;2.08;1.08;;;;;;;7.02;80.58;98609.97;4982570;28;20051;-53
2023/10/22 04:44:55;;;;;;;1.40;1.00;;;;;;;7.00;80.09;98617.75;4981632;28;20050;-50
2023/10/22 04:47:22;;;;;;;2.40;1.20;;;;;;;6.99;80.58;98628.06;4982976;28;20133;-50
2023/10/22 04:49:51;;;;;;;2.70;0.80;;;;;;;6.97;79.22;98622.06;4984884;28;20050;-48
2023/10/22 04:52:36;;;;;;;2.67;0.85;;;;;;;6.96;80.69;98633.25;4978372;28;20527;-48
2023/10/22 04:55:03;;;;;;;1.58;0.98;;;;;;;6.93;80.45;98632.38;4982254;28;20050;-50
2023/10/22 04:57:29;;;;;;;1.45;1.15;;;;;;;6.93;79.36;98628.97;4984876;28;21629;-48
2023/10/22 04:59:56;;;;;;;3.50;0.98;;;;;;;6.91;80.01;98639.28;4981926;28;20241;-50
2023/10/22 05:02:23;;;;;;;4.05;1.35;;;;;;;6.89;80.37;98635.88;4977902;28;20073;-52
2023/10/22 05:04:51;;;;;;;2.03;1.20;;;;;;;6.89;79.90;98637.59;4982719;28;20046;-47
2023/10/22 05:07:18;;;;;;;2.63;1.05;;;;;;;6.86;80.03;98638.47;4984350;28;20069;-50
2023/10/22 05:09:45;;;;;;;2.22;1.00;;;;;;;6.86;80.38;98641.03;4985531;28;20058;-51
2023/10/22 05:12:12;;;;;;;3.45;1.98;;;;;;;6.85;79.49;98641.91;4987384;28;20089;-47
2023/10/22 05:14:39;;;;;;;1.10;0.70;;;;;;;6.84;79.96;98649.66;4984376;28;20054;-48
2023/10/22 05:17:06;;;;;;;1.95;1.00;;;;;;;6.82;80.07;98644.50;4984200;28;22001;-50
2023/10/22 05:19:34;;;;;;;2.72;1.13;;;;;;;6.80;79.97;98653.97;4984826;28;20105;-46
2023/10/22 05:22:01;;;;;;;2.13;0.73;;;;;;;6.78;80.02;98661.72;4984340;28;20351;-48
2023/10/22 05:24:28;;;;;;;1.83;0.88;;;;;;;6.77;79.67;98669.44;4986671;28;20742;-50
2023/10/22 05:26:55;;;;;;;1.58;1.08;;;;;;;6.75;80.64;98672.03;4986670;28;20101;-52
2023/10/22 05:29:22;;;;;;;1.67;1.15;;;;;;;6.73;79.29;98668.63;4986583;28;20699;-48
2023/10/22 05:31:50;;;;;;;2.40;0.98;;;;;;;6.72;79.28;98671.22;4987558;28;20050;-51
2023/10/22 05:34:16;;;;;;;2.95;0.80;;;;;;;6.70;80.37;98678.97;4988300;28;20129;-52
2023/10/22 05:36:43;;;;;;;1.30;0.90;;;;;;;6.69;80.70;98672.94;4984624;28;20385;-51
2023/10/22 05:39:10;;;;;;;1.48;0.90;;;;;;;6.68;79.96;98681.53;4983942;28;20054;-47
2023/10/22 05:41:36;;;;;;;1.70;0.65;;;;;;;6.67;79.73;98687.56;4988594;28;20464;-50
2023/10/22 05:44:03;;;;;;;3.17;0.93;;;;;;;6.66;80.12;98688.41;4989448;28;20088;-48
2023/10/22 05:46:33;;;;;;;2.80;1.00;;;;;;;6.66;79.76;98697.88;4985406;28;20070;-51
2023/10/22 05:49:01;;;;;;;1.60;0.98;;;;;;;6.64;79.67;98694.44;4966585;28;20050;-51
2023/10/22 05:51:27;;;;;;;2.55;1.33;;;;;;;6.62;79.44;98699.59;4985610;28;20058;-50
2023/10/22 05:53:54;;;;;;;1.90;0.90;;;;;;;6.61;79.97;98692.75;4984284;28;20519;-46
2023/10/22 05:56:23;;;;;;;1.45;0.88;;;;;;;6.61;79.09;98700.47;4989156;28;20068;-48
2023/10/22 05:58:50;;;;;;;1.83;0.88;;;;;;;6.60;80.30;98703.91;4990688;28;20121;-46
2023/10/22 06:01:17;;;;;;;2.25;0.93;;;;;;;6.59;80.04;98707.34;4985642;28;20058;-50
2023/10/22 06:03:44;;;;;;;1.92;0.95;;;;;;;6.60;80.68;98716.78;4985997;28;20129;-47
2023/10/22 06:06:18;;;;;;;2.15;0.73;;;;;;;6.58;79.87;98710.78;4983212;28;20053;-50
2023/10/22 06:08:46;;;;;;;1.75;0.98;;;;;;;6.57;80.12;98714.22;4987363;28;20404;-47
2023/10/22 06:11:14;;;;;;;3.40;1.33;;;;;;;6.57;80.49;98729.66;4984504;28;20057;-51
2023/10/22 06:13:41;;;;;;;3.13;1.23;;;;;;;6.57;80.94;98724.50;4986341;28;20054;-51
2023/10/22 06:16:08;;;;;;;4.68;1.25;;;;;;;6.54;79.73;98724.53;4983033;28;20073;-49
2023/10/22 06:18:35;;;;;;;1.83;1.00;;;;;;;6.53;80.42;98733.13;4981348;28;20135;-49
2023/10/22 06:21:10;;;;;;;5.28;1.02;;;;;;;6.52;80.06;98739.13;4986120;28;20082;-50
2023/10/22 06:23:37;;;;;;;0.90;0.63;;;;;;;6.52;79.92;98752.00;4981246;28;20140;-52
2023/10/22 06:26:04;;;;;;;5.57;0.90;;;;;;;6.49;79.17;98747.72;4985780;28;20620;-51
2023/10/22 06:28:31;;;;;;;2.55;0.95;;;;;;;6.48;80.70;98746.00;4982326;28;20150;-52
2023/10/22 06:31:07;;;;;;;2.42;1.08;;;;;;;6.46;79.90;98752.03;4981391;28;20042;-47
2023/10/22 06:33:34;;;;;;;1.55;0.77;;;;;;;6.46;80.55;98762.31;4986366;28;20635;-49
2023/10/22 06:36:19;;;;;;;3.92;1.13;;;;;;;6.43;80.43;98766.59;4988837;28;20573;-50
2023/10/22 06:38:48;;;;;;;1.70;1.30;;;;;;;6.43;79.76;98764.03;4970122;28;20058;-50
2023/10/22 06:41:17;;;;;;;5.35;0.90;;;;;;;6.42;79.80;98767.47;4983402;28;20047;-48
2023/10/22 06:43:44;;;;;;;1.50;0.95;;;;;;;6.40;80.14;98774.38;4986143;28;20050;-50
2023/10/22 06:46:11;;;;;;;1.52;0.98;;;;;;;6.40;79.85;98784.66;4979820;28;20073;-51
2023/10/22 06:48:38;;;;;;;2.17;1.55;;;;;;;6.40;79.24;98779.50;4983609;28;20042;-47
2023/10/22 06:51:11;;;;;;;1.60;1.10;;;;;;;6.40;80.74;98789.81;4985696;28;20042;-49
2023/10/22 06:53:38;;;;;;;1.83;1.20;;;;;;;6.41;79.40;98795.78;4983012;28;20058;-48
2023/10/22 06:56:05;;;;;;;3.08;1.55;;;;;;;6.40;80.57;98794.94;4981357;28;20484;-51
2023/10/22 06:58:32;;;;;;;2.35;1.48;;;;;;;6.40;79.31;98800.09;4985711;28;20411;-47
2023/10/22 07:01:05;;;;;;;3.25;1.15;;;;;;;6.41;80.20;98801.78;4984511;28;20128;-48
2023/10/22 07:03:34;;;;;;;2.05;1.02;;;;;;;6.41;80.21;98806.94;4983669;28;20046;-49
2023/10/22 07:06:01;;;;;;;2.20;0.90;;;;;;;6.42;80.05;98815.50;4984227;28;20137;-47
2023/10/22 07:08:29;;;;;;;1.30;0.70;;;;;;;6.43;80.29;98820.63;4984212;28;20496;-50
2023/10/22 07:10:56;;;;;;;1.58;0.80;;;;;;;6.46;80.95;98826.63;4967498;28;20811;-47
2023/10/22 07:13:24;;;;;;;2.90;1.35;;;;;;;6.48;80.37;98824.91;4984293;28;20420;-53
2023/10/22 07:15:52;;;;;;;4.40;0.85;;;;;;;6.50;80.43;98823.16;4982390;28;20061;-50
2023/10/22 07:18:19;;;;;;;2.25;1.05;;;;;;;6.52;79.79;98830.00;4986926;28;20045;-50
2023/10/22 07:20:47;;;;;;;2.58;1.23;;;;;;;6.55;79.79;98834.28;4979163;28;20070;-49
2023/10/22 07:23:14;;;;;;;2.88;1.80;;;;;;;6.56;80.37;98830.88;4979039;28;20124;-49
2023/10/22 07:25:41;;;;;;;2.17;1.10;;;;;;;6.60;80.50;98832.56;4986711;28;20095;-49
2023/10/22 07:28:08;;;;;;;2.13;1.20;;;;;;;6.63;80.13;98840.25;4981194;28;20073;-49
2023/10/22 07:30:34;;;;;;;3.00;1.35;;;;;;;6.67;80.18;98854.81;4987943;28;20061;-48
2023/10/22 07:33:01;;;;;;;3.63;1.77;;;;;;;6.71;80.38;98854.78;4965632;28;20046;-49
2023/10/22 07:35:28;;;;;;;3.53;1.80;;;;;;;6.75;80.79;98854.75;4967515;28;20073;-51
2023/10/22 07:37:54;;;;;;;4.03;2.15;;;;;;;6.82;80.04;98863.28;4969241;28;20055;-48
2023/10/22 07:40:21;;;;;;;3.40;1.73;;;;;;;6.88;80.10;98868.41;4966431;28;20069;-48
2023/10/22 07:42:48;;;;;;;2.60;1.20;;;;;;;6.96;80.11;98876.09;4964229;28;20721;-48
2023/10/22 07:45:16;;;;;;;5.28;1.60;;;;;;;7.13;80.52;98875.94;4967602;28;20055;-49
2023/10/22 07:47:43;;;;;;;7.82;2.28;;;;;;;7.46;80.97;98880.81;4964775;28;20054;-50
2023/10/22 07:50:10;;;;;;;8.30;1.73;;;;;;;7.91;80.22;98872.66;4967865;28;20107;-50
2023/10/22 07:52:37;;;;;;;12.00;2.58;;;;;;;8.36;80.45;98879.03;4983704;28;20061;-50
2023/10/22 07:55:05;;;;;;;22.92;6.13;;;;;;;8.56;79.39;98893.44;4986847;28;20050;-49
2023/10/22 07:57:33;;;;;;;3.75;1.35;;;;;;;8.61;79.38;98889.91;4980091;28;20488;-48
2023/10/22 08:00:00;;;;;;;6.53;2.03;;;;;;;8.73;79.61;98894.06;4980972;28;20128;-49
2023/10/22 08:02:27;;;;;;;1.52;0.93;;;;;;;8.96;79.38;98895.47;4980990;28;20104;-53
2023/10/22 08:04:53;;;;;;;1.50;0.90;;;;;;;9.30;79.95;98898.41;4980912;28;20046;-51
2023/10/22 08:07:21;;;;;;;2.97;1.15;;;;;;;9.96;78.68;98904.16;4986950;28;20038;-48
2023/10/22 08:09:47;;;;;;;3.03;1.48;;;;;;;10.67;77.61;98903.66;4983627;28;20054;-52
2023/10/22 08:12:14;;;;;;;1.33;0.70;;;;;;;11.15;76.55;98901.75;4978901;28;20522;-51
2023/10/22 08:14:41;;;;;;;3.47;1.60;;;;;;;11.38;74.92;98903.75;4985965;28;20073;-53
2023/10/22 08:17:07;;;;;;;4.97;1.50;;;;;;;11.39;74.75;98910.66;4986880;28;20046;-49
2023/10/22 08:19:34;;;;;;;4.55;1.83;;;;;;;11.23;74.40;98915.38;4976972;28;20047;-48
2023/10/22 08:22:01;;;;;;;9.95;3.45;;;;;;;11.10;75.95;98908.75;4988502;28;20542;-46
2023/10/22 08:24:27;;;;;;;9.43;2.83;;;;;;;11.36;77.04;98920.25;4978497;28;20085;-53
2023/10/22 08:26:54;;;;;;;6.63;1.88;;;;;;;12.03;75.42;98932.38;4973328;28;20050;-51
2023/10/22 08:29:22;;;;;;;5.90;2.30;;;;;;;12.75;75.48;98935.63;4977918;28;20050;-45
2023/10/22 08:31:49;;;;;;;2.72;0.93;;;;;;;13.55;74.31;98934.09;4986269;28;20062;-48
2023/10/22 08:34:15;;;;;;;14.07;4.43;;;;;;;14.37;73.43;98938.22;4980241;28;20056;-50
2023/10/22 08:36:42;;;;;;;15.25;4.40;;;;;;;15.28;72.46;98940.06;4976791;28;20042;-48
2023/10/22 08:39:10;;;;;;;10.45;3.70;;;;;;;16.08;70.59;98942.91;4977774;28;20385;-49
2023/10/22 08:41:45;;;;;;;11.43;4.20;;;;;;;16.77;68.73;98952.94;4983949;28;20073;-50
2023/10/22 08:44:13;;;;;;;3.30;1.75;;;;;;;17.45;67.07;98952.38;4982651;28;20050;-45
2023/10/22 08:46:42;;;;;;;4.80;1.50;;;;;;;18.16;66.07;98951.53;4986889;28;20050;-54
2023/10/22 08:49:11;;;;;;;6.45;2.20;;;;;;;18.86;64.11;98945.25;4980614;28;20057;-45
2023/10/22 08:51:38;;;;;;;17.58;4.28;;;;;;;19.58;63.35;98962.28;4984334;28;20060;-50
2023/10/22 08:54:05;;;;;;;14.50;3.80;;;;;;;20.31;62.97;98957.19;4977385;28;20072;-46
2023/10/22 08:56:32;;;;;;;7.05;2.38;;;;;;;20.92;61.28;98964.88;4976406;28;20129;-51
2023/10/22 08:59:01;;;;;;;2.67;1.10;;;;;;;21.32;58.92;98967.56;4983323;28;20495;-50
2023/10/22 09:01:28;;;;;;;8.40;2.08;;;;;;;21.19;58.33;98966.69;4980962;28;20126;-50
2023/10/22 09:03:55;;;;;;;5.43;1.60;;;;;;;20.72;58.39;98971.34;4978603;28;20046;-51
2023/10/22 09:06:23;;;;;;;3.10;1.33;;;;;;;20.13;58.70;98965.28;4980036;28;20723;-45
2023/10/22 09:08:51;;;;;;;4.20;1.90;;;;;;;19.76;59.53;98971.72;4986986;28;20050;-50
2023/10/22 09:11:18;;;;;;;4.45;1.35;;;;;;;19.49;59.32;98975.00;4988432;28;20046;-52
2023/10/22 09:13:46;;;;;;;5.40;1.30;;;;;;;19.35;59.25;98977.59;4972442;28;20043;-52
2023/10/22 09:16:33;;;;;;;6.90;2.33;;;;;;;19.54;60.59;98987.88;4980706;28;20515;-52
2023/10/22 09:19:02;;;;;;;8.50;2.63;;;;;;;20.26;60.52;98984.63;4978572;28;20061;-49
2023/10/22 09:21:40;;;;;;;4.63;1.25;;;;;;;21.19;59.79;98982.50;4979632;28;20676;-49
2023/10/22 09:24:07;;;;;;;4.40;1.75;;;;;;;22.05;59.60;98985.69;4980943;28;20055;-47
2023/10/22 09:26:48;;;;;;;5.10;1.42;;;;;;;22.34;56.72;98990.78;4982709;28;20043;-51
2023/10/22 09:29:16;;;;;;;1.08;0.70;;;;;;;21.90;54.51;98992.00;4985596;28;20054;-49
2023/10/22 09:31:50;;;;;;;1.80;0.88;;;;;;;21.06;55.11;98993.81;4981493;28;20150;-50
2023/10/22 09:34:26;;;;;;;4.65;1.90;;;;;;;20.19;55.84;99003.50;4983185;28;20066;-50
2023/10/22 09:36:54;;;;;;;2.55;1.05;;;;;;;19.44;56.62;99005.94;4983734;28;20066;-51
2023/10/22 09:39:43;;;;;;;4.07;1.52;;;;;;;18.65;57.32;99005.81;4986092;28;20047;-49
2023/10/22 09:42:11;;;;;;;5.28;2.00;;;;;;;18.13;58.62;99004.97;4985411;28;20061;-51
2023/10/22 09:44:44;;;;;;;10.32;2.95;;;;;;;17.65;59.28;99005.53;4985940;28;20058;-50
2023/10/22 09:47:22;;;;;;;2.63;1.00;;;;;;;17.28;59.59;99015.16;4982126;28;20050;-53
2023/10/22 09:49:53;;;;;;;2.50;1.08;;;;;;;16.94;60.00;99013.16;4983889;28;20105;-52
2023/10/22 09:52:23;;;;;;;3.35;1.05;;;;;;;16.67;61.04;99023.97;4979660;28;20050;-49
2023/10/22 09:54:54;;;;;;;2.90;1.10;;;;;;;16.51;61.39;99018.56;4980613;28;20535;-53
2023/10/22 09:57:29;;;;;;;10.70;2.78;;;;;;;16.47;62.37;99023.97;4984902;28;20043;-51
2023/10/22 10:00:01;;;;;;;4.43;1.35;;;;;;;16.56;62.22;99026.19;4978115;28;20053;-50
2023/10/22 10:02:29;;;;;;;5.18;1.65;;;;;;;16.68;62.10;99024.78;4988330;28;20569;-54
2023/10/22 10:04:56;;;;;;;2.88;0.93;;;;;;;17.14;62.65;99032.34;4987486;28;20058;-51
2023/10/22 10:07:23;;;;;;;16.55;4.72;;;;;;;17.73;62.70;99040.03;4981543;28;20334;-49
2023/10/22 10:09:52;;;;;;;4.80;2.55;;;;;;;18.45;62.57;99047.03;4988531;28;20046;-55
2023/10/22 10:12:19;;;;;;;9.40;3.00;;;;;;;19.33;61.14;99051.19;4982162;28;20116;-54
2023/10/22 10:14:47;;;;;;;3.58;1.25;;;;;;;19.95;59.39;99049.47;4982518;28;20046;-54
2023/10/22 10:17:15;;;;;;;3.28;1.70;;;;;;;20.40;58.71;99046.88;4977964;28;20054;-48
2023/10/22 10:19:42;;;;;;;5.38;1.60;;;;;;;20.73;57.96;99052.81;4978247;28;20054;-47
2023/10/22 10:22:09;;;;;;;2.45;1.77;;;;;;;21.12;57.17;99060.16;4988526;28;20511;-49
2023/10/22 10:24:36;;;;;;;2.42;1.33;;;;;;;21.30;56.46;99061.66;4986820;28;20046;-53
2023/10/22 10:29:41;;;;;;;2.45;1.38;;;;;;;21.11;54.74;99063.75;5087850;27;20401;-49
2023/10/22 10:35:01;;;;;;;2.20;1.17;;;;;;;20.70;55.00;99070.59;5083696;27;20393;-52
2023/10/22 10:37:28;;;;;;;3.83;0.90;;;;;;;20.50;54.92;99068.22;5036350;28;20056;-51
2023/10/22 10:39:55;;;;;;;2.38;0.82;;;;;;;20.31;54.52;99075.50;5022813;28;20049;-53
2023/10/22 10:45:07;;;;;;;3.25;1.30;;;;;;;19.86;54.44;99076.28;5066157;27;20404;-52
2023/10/22 10:47:37;;;;;;;3.28;1.15;;;;;;;19.53;54.31;99075.50;5035401;28;20133;-55
2023/10/22 10:58:03;;;;;;;3.45;1.83;;;;;;;18.59;55.41;99079.53;5096557;27;20410;-51
2023/10/22 11:00:31;;;;;;;4.25;2.58;;;;;;;18.50;55.57;99075.63;5052422;28;20111;-56
2023/10/22 11:03:02;;;;;;;3.05;1.70;;;;;;;18.40;55.93;99080.47;5053460;28;20075;-51
2023/10/22 11:05:46;;;;;;;3.40;1.00;;;;;;;18.20;55.55;99084.97;5036369;28;20075;-50
2023/10/22 11:08:18;;;;;;;3.05;1.00;;;;;;;17.99;55.88;99082.47;5032412;28;20044;-55
2023/10/22 11:10:45;;;;;;;2.30;1.10;;;;;;;17.76;56.30;99085.34;5036112;28;20096;-49
2023/10/22 11:13:12;;;;;;;2.83;1.35;;;;;;;17.65;56.58;99084.09;5029969;28;20138;-51
2023/10/22 11:15:40;;;;;;;2.53;0.85;;;;;;;17.66;57.34;99077.91;5030131;28;20103;-53
2023/10/22 11:18:10;;;;;;;5.78;3.15;;;;;;;17.72;57.49;99085.50;5031233;28;20052;-51
2023/10/22 11:20:38;;;;;;;2.88;1.63;;;;;;;17.77;57.75;99087.91;5042726;28;20068;-48
2023/10/22 11:23:18;;;;;;;2.05;0.98;;;;;;;17.68;56.96;99094.41;5031809;28;20041;-52
2023/10/22 11:25:45;;;;;;;3.60;2.03;;;;;;;17.60;57.09;99096.56;5030019;28;20053;-48
2023/10/22 11:28:13;;;;;;;2.80;1.30;;;;;;;17.51;58.05;99089.13;5057846;28;20067;-49
2023/10/22 11:30:41;;;;;;;1.77;1.13;;;;;;;17.44;58.03;99092.03;5076514;28;20613;-49
2023/10/22 11:33:11;;;;;;;3.40;0.95;;;;;;;17.31;57.35;99090.91;5070033;28;20049;-53
2023/10/22 11:35:38;;;;;;;1.63;1.52;;;;;;;17.18;57.44;99096.69;5071846;28;20044;-52
2023/10/22 11:38:06;;;;;;;2.53;1.20;;;;;;;17.14;58.30;99100.38;5053904;28;20047;-52
2023/10/22 11:40:36;;;;;;;1.67;0.98;;;;;;;17.13;58.78;99106.53;5071771;28;20678;-52
2023/10/22 11:43:14;;;;;;;1.92;1.23;;;;;;;17.09;58.08;99102.34;5069890;28;20048;-50
2023/10/22 11:45:51;;;;;;;2.45;1.27;;;;;;;17.12;58.46;99099.59;5048625;28;20055;-53
2023/10/22 11:48:20;;;;;;;3.60;1.15;;;;;;;17.20;59.21;99110.53;5066156;28;20054;-51
2023/10/22 11:50:49;;;;;;;3.17;0.85;;;;;;;17.14;59.20;99108.22;5056808;28;20131;-48
2023/10/22 11:53:17;;;;;;;1.55;0.88;;;;;;;17.08;58.59;99113.72;5062799;28;20059;-48
2023/10/22 11:55:45;;;;;;;4.40;1.83;;;;;;;17.00;58.83;99118.41;5054073;28;20061;-51
2023/10/22 11:58:17;;;;;;;3.72;1.17;;;;;;;16.94;59.42;99115.16;5075005;28;20044;-50